createdAt,value
2018-12-18T00:00:28.511Z,0.00
2018-12-18T00:01:28.489Z,0.00
2018-12-18T00:02:28.498Z,0.00
2018-12-18T00:03:28.531Z,0.00
2018-12-18T00:04:28.435Z,0.00
2018-12-18T00:05:28.445Z,0.00
2018-12-18T00:06:28.428Z,0.00
2018-12-18T00:07:28.495Z,0.00
2018-12-18T00:08:28.472Z,0.00
2018-12-18T00:09:28.923Z,0.00
2018-12-18T00:10:28.409Z,0.00
2018-12-18T00:11:28.975Z,0.00
2018-12-18T00:12:28.429Z,0.00
2018-12-18T00:13:28.418Z,0.00
2018-12-18T00:14:28.438Z,0.00
2018-12-18T00:15:28.938Z,0.00
2018-12-18T00:16:28.369Z,0.00
2018-12-18T00:17:28.408Z,0.00
2018-12-18T00:18:28.921Z,0.00
2018-12-18T00:19:28.929Z,0.00
2018-12-18T00:20:28.907Z,0.00
2018-12-18T00:21:28.334Z,0.00
2018-12-18T00:22:28.372Z,0.00
2018-12-18T00:23:29.129Z,0.00
2018-12-18T00:24:28.361Z,0.00
2018-12-18T00:25:28.842Z,0.00
2018-12-18T00:26:30.186Z,0.00
2018-12-18T00:27:28.309Z,0.00
2018-12-18T00:28:28.267Z,0.00
2018-12-18T00:29:28.270Z,0.00
2018-12-18T00:30:28.753Z,0.00
2018-12-18T00:31:28.143Z,0.00
2018-12-18T00:32:28.269Z,0.00
2018-12-18T00:33:28.253Z,0.00
2018-12-18T00:34:28.202Z,0.00
2018-12-18T00:35:28.771Z,0.00
2018-12-18T00:36:28.199Z,0.00
2018-12-18T00:37:28.237Z,0.00
2018-12-18T00:38:28.161Z,0.00
2018-12-18T00:39:30.239Z,0.00
2018-12-18T00:40:28.226Z,0.00
2018-12-18T00:41:28.211Z,0.00
2018-12-18T00:42:28.157Z,0.00
2018-12-18T00:43:28.666Z,0.00
2018-12-18T00:44:29.655Z,0.00
2018-12-18T00:45:28.167Z,0.00
2018-12-18T00:46:28.106Z,0.00
2018-12-18T00:47:28.113Z,0.00
2018-12-18T00:48:28.126Z,0.00
2018-12-18T00:49:28.652Z,0.00
2018-12-18T00:50:28.094Z,0.00
2018-12-18T00:51:28.139Z,0.00
2018-12-18T00:52:27.875Z,0.00
2018-12-18T00:53:27.818Z,0.00
2018-12-18T00:54:28.108Z,0.00
2018-12-18T00:55:28.099Z,0.00
2018-12-18T00:56:27.705Z,0.00
2018-12-18T00:57:28.115Z,0.00
2018-12-18T00:58:28.070Z,0.00
2018-12-18T00:59:28.071Z,0.00
2018-12-18T01:00:28.600Z,0.00
2018-12-18T01:01:28.080Z,0.00
2018-12-18T01:02:27.624Z,0.00
2018-12-18T01:03:28.019Z,0.00
2018-12-18T01:04:28.055Z,0.00
2018-12-18T01:05:28.007Z,0.00
2018-12-18T01:06:28.025Z,0.00
2018-12-18T01:07:27.948Z,0.00
2018-12-18T01:08:28.527Z,0.00
2018-12-18T01:09:28.415Z,0.00
2018-12-18T01:10:30.687Z,0.00
2018-12-18T01:11:28.527Z,0.00
2018-12-18T01:12:27.978Z,0.00
2018-12-18T01:13:27.920Z,0.00
2018-12-18T01:14:27.969Z,0.00
2018-12-18T01:15:27.940Z,0.00
2018-12-18T01:16:28.469Z,0.00
2018-12-18T01:17:27.926Z,0.00
2018-12-18T01:18:27.901Z,0.00
2018-12-18T01:19:27.914Z,0.00
2018-12-18T01:20:27.508Z,0.00
2018-12-18T01:21:27.807Z,0.00
2018-12-18T01:22:27.802Z,0.00
2018-12-18T01:23:27.886Z,0.00
2018-12-18T01:24:27.818Z,0.00
2018-12-18T01:25:27.899Z,0.00
2018-12-18T01:26:28.371Z,0.00
2018-12-18T01:27:27.849Z,0.00
2018-12-18T01:28:27.806Z,0.00
2018-12-18T01:29:27.775Z,0.00
2018-12-18T01:30:27.818Z,0.00
2018-12-18T01:31:28.378Z,0.00
2018-12-18T01:32:27.769Z,0.00
2018-12-18T01:33:27.789Z,0.00
2018-12-18T01:34:27.790Z,0.00
2018-12-18T01:35:28.262Z,0.00
2018-12-18T01:36:27.792Z,0.00
2018-12-18T01:37:27.801Z,0.00
2018-12-18T01:38:27.750Z,0.00
2018-12-18T01:39:28.188Z,0.00
2018-12-18T01:40:28.203Z,0.00
2018-12-18T01:41:27.710Z,0.00
2018-12-18T01:42:27.692Z,0.00
2018-12-18T01:43:27.741Z,0.00
2018-12-18T01:44:27.718Z,0.00
2018-12-18T01:45:27.717Z,0.00
2018-12-18T01:46:27.686Z,0.00
2018-12-18T01:47:27.667Z,0.00
2018-12-18T01:48:27.641Z,0.00
2018-12-18T01:49:27.665Z,0.00
2018-12-18T01:50:28.219Z,0.00
2018-12-18T01:51:27.610Z,0.00
2018-12-18T01:52:27.330Z,0.00
2018-12-18T01:53:27.609Z,0.00
2018-12-18T01:54:28.202Z,0.00
2018-12-18T01:55:27.657Z,0.00
2018-12-18T01:56:27.638Z,0.00
2018-12-18T01:57:27.586Z,0.00
2018-12-18T01:58:28.153Z,0.00
2018-12-18T01:59:28.137Z,0.00
2018-12-18T02:00:27.634Z,0.00
2018-12-18T02:01:28.113Z,0.00
2018-12-18T02:02:27.608Z,0.00
2018-12-18T02:03:28.038Z,0.00
2018-12-18T02:04:27.611Z,0.00
2018-12-18T02:05:27.529Z,0.00
2018-12-18T02:06:27.586Z,0.00
2018-12-18T02:07:28.037Z,0.00
2018-12-18T02:08:27.579Z,0.00
2018-12-18T02:09:28.078Z,0.00
2018-12-18T02:10:28.038Z,0.00
2018-12-18T02:11:28.163Z,0.00
2018-12-18T02:12:28.033Z,0.00
2018-12-18T02:13:27.512Z,0.00
2018-12-18T02:14:27.984Z,0.00
2018-12-18T02:15:27.458Z,0.00
2018-12-18T02:16:28.028Z,0.00
2018-12-18T02:17:27.953Z,0.00
2018-12-18T02:18:27.960Z,0.00
2018-12-18T02:19:27.088Z,0.00
2018-12-18T02:20:27.482Z,0.00
2018-12-18T02:21:27.911Z,0.00
2018-12-18T02:22:27.809Z,0.00
2018-12-18T02:23:27.948Z,0.00
2018-12-18T02:24:27.412Z,0.00
2018-12-18T02:25:27.954Z,0.00
2018-12-18T02:26:27.440Z,0.00
2018-12-18T02:27:27.395Z,0.00
2018-12-18T02:28:27.391Z,0.00
2018-12-18T02:29:27.379Z,0.00
2018-12-18T02:30:27.884Z,0.00
2018-12-18T02:31:27.325Z,0.00
2018-12-18T02:32:27.281Z,0.00
2018-12-18T02:33:26.943Z,0.00
2018-12-18T02:34:26.877Z,0.00
2018-12-18T02:35:26.875Z,0.00
2018-12-18T02:36:26.890Z,0.00
2018-12-18T02:37:26.853Z,0.00
2018-12-18T02:38:26.875Z,0.00
2018-12-18T02:39:26.840Z,0.00
2018-12-18T02:40:26.848Z,0.00
2018-12-18T02:41:26.831Z,0.00
2018-12-18T02:42:26.853Z,0.00
2018-12-18T02:43:26.831Z,0.00
2018-12-18T02:44:26.809Z,0.00
2018-12-18T02:45:26.796Z,0.00
2018-12-18T02:46:26.788Z,0.00
2018-12-18T02:47:26.801Z,0.00
2018-12-18T02:48:26.805Z,0.00
2018-12-18T02:49:26.767Z,0.00
2018-12-18T02:50:26.767Z,0.00
2018-12-18T02:51:26.751Z,0.00
2018-12-18T02:52:26.746Z,0.00
2018-12-18T02:53:26.738Z,0.00
2018-12-18T02:54:26.733Z,0.00
2018-12-18T02:55:26.723Z,0.00
2018-12-18T02:56:26.715Z,0.00
2018-12-18T02:57:26.709Z,0.00
2018-12-18T02:58:26.700Z,0.00
2018-12-18T02:59:26.702Z,0.00
2018-12-18T03:00:26.707Z,0.00
2018-12-18T03:01:26.683Z,0.00
2018-12-18T03:02:26.672Z,0.00
2018-12-18T03:03:26.668Z,0.00
2018-12-18T03:04:26.655Z,0.00
2018-12-18T03:05:26.648Z,0.00
2018-12-18T03:06:26.675Z,0.00
2018-12-18T03:07:26.632Z,0.00
2018-12-18T03:08:26.636Z,0.00
2018-12-18T03:09:26.623Z,0.00
2018-12-18T03:10:26.611Z,0.00
2018-12-18T03:11:26.603Z,0.00
2018-12-18T03:12:26.602Z,0.00
2018-12-18T03:13:26.596Z,0.00
2018-12-18T03:14:26.587Z,0.00
2018-12-18T03:15:26.573Z,0.00
2018-12-18T03:16:26.569Z,0.00
2018-12-18T03:17:26.561Z,0.00
2018-12-18T03:18:26.554Z,0.00
2018-12-18T03:19:26.550Z,0.00
2018-12-18T03:20:26.559Z,0.00
2018-12-18T03:21:26.542Z,0.00
2018-12-18T03:22:26.537Z,0.00
2018-12-18T03:23:26.518Z,0.00
2018-12-18T03:24:26.506Z,0.00
2018-12-18T03:25:26.500Z,0.00
2018-12-18T03:26:26.495Z,0.00
2018-12-18T03:27:26.483Z,0.00
2018-12-18T03:28:26.482Z,0.00
2018-12-18T03:29:26.474Z,0.00
2018-12-18T03:30:26.464Z,0.00
2018-12-18T03:31:26.454Z,0.00
2018-12-18T03:32:26.448Z,0.00
2018-12-18T03:33:26.457Z,0.00
2018-12-18T03:34:28.370Z,0.00
2018-12-18T03:35:26.437Z,0.00
2018-12-18T03:36:26.416Z,0.00
2018-12-18T03:37:26.411Z,0.00
2018-12-18T03:38:26.424Z,0.00
2018-12-18T03:39:26.394Z,0.00
2018-12-18T03:40:26.400Z,0.00
2018-12-18T03:41:26.406Z,0.00
2018-12-18T03:42:26.367Z,0.00
2018-12-18T03:43:26.362Z,0.00
2018-12-18T03:44:26.354Z,0.00
2018-12-18T03:45:26.356Z,0.00
2018-12-18T03:46:26.340Z,0.00
2018-12-18T03:47:26.330Z,0.00
2018-12-18T03:48:26.319Z,0.00
2018-12-18T03:49:26.314Z,0.00
2018-12-18T03:50:26.318Z,0.00
2018-12-18T03:51:26.306Z,0.00
2018-12-18T03:52:26.287Z,0.00
2018-12-18T03:53:26.284Z,0.00
2018-12-18T03:54:26.296Z,0.00
2018-12-18T03:55:26.288Z,0.00
2018-12-18T03:56:26.257Z,0.00
2018-12-18T03:57:26.255Z,0.00
2018-12-18T03:58:26.268Z,0.00
2018-12-18T03:59:26.240Z,0.00
2018-12-18T04:00:26.230Z,0.00
2018-12-18T04:01:26.234Z,0.00
2018-12-18T04:02:26.218Z,0.00
2018-12-18T04:03:26.202Z,0.00
2018-12-18T04:04:27.770Z,0.00
2018-12-18T04:05:26.188Z,0.00
2018-12-18T04:06:26.176Z,0.00
2018-12-18T04:07:26.167Z,0.00
2018-12-18T04:08:26.162Z,0.00
2018-12-18T04:09:26.160Z,0.00
2018-12-18T04:10:26.145Z,0.00
2018-12-18T04:11:26.137Z,0.00
2018-12-18T04:12:26.133Z,0.00
2018-12-18T04:13:26.122Z,0.00
2018-12-18T04:14:26.172Z,0.00
2018-12-18T04:15:26.109Z,0.00
2018-12-18T04:16:26.097Z,0.00
2018-12-18T04:17:26.091Z,0.00
2018-12-18T04:18:26.084Z,0.00
2018-12-18T04:19:26.074Z,0.00
2018-12-18T04:20:26.064Z,0.00
2018-12-18T04:21:26.059Z,0.00
2018-12-18T04:22:26.051Z,0.00
2018-12-18T04:23:26.043Z,0.00
2018-12-18T04:24:26.033Z,0.00
2018-12-18T04:25:26.030Z,0.00
2018-12-18T04:26:26.026Z,0.00
2018-12-18T04:27:26.027Z,0.00
2018-12-18T04:28:26.021Z,0.00
2018-12-18T04:29:25.999Z,0.00
2018-12-18T04:30:25.990Z,0.00
2018-12-18T04:31:25.979Z,0.00
2018-12-18T04:32:25.974Z,0.00
2018-12-18T04:33:25.967Z,0.00
2018-12-18T04:34:25.992Z,0.00
2018-12-18T04:35:25.946Z,0.00
2018-12-18T04:36:25.940Z,0.00
2018-12-18T04:37:25.934Z,0.00
2018-12-18T04:38:25.923Z,0.00
2018-12-18T04:39:25.927Z,0.00
2018-12-18T04:40:25.915Z,0.00
2018-12-18T04:41:25.932Z,0.00
2018-12-18T04:42:25.899Z,0.00
2018-12-18T04:43:25.890Z,0.00
2018-12-18T04:44:25.879Z,0.00
2018-12-18T04:45:25.870Z,0.00
2018-12-18T04:46:25.858Z,0.00
2018-12-18T04:47:25.849Z,0.00
2018-12-18T04:48:25.845Z,0.00
2018-12-18T04:49:25.865Z,0.00
2018-12-18T04:50:25.827Z,0.00
2018-12-18T04:51:25.818Z,0.00
2018-12-18T04:52:25.810Z,0.00
2018-12-18T04:53:25.801Z,0.00
2018-12-18T04:54:25.797Z,0.00
2018-12-18T04:55:25.810Z,0.00
2018-12-18T04:56:25.780Z,0.00
2018-12-18T04:57:25.771Z,0.00
2018-12-18T04:58:25.764Z,0.00
2018-12-18T04:59:25.813Z,0.00
2018-12-18T05:00:25.747Z,0.00
2018-12-18T05:01:25.735Z,0.00
2018-12-18T05:02:25.735Z,0.00
2018-12-18T05:03:25.723Z,0.00
2018-12-18T05:04:25.740Z,0.00
2018-12-18T05:05:25.709Z,0.00
2018-12-18T05:06:25.696Z,0.00
2018-12-18T05:07:25.689Z,0.00
2018-12-18T05:08:25.683Z,0.00
2018-12-18T05:09:25.672Z,0.00
2018-12-18T05:10:25.668Z,0.00
2018-12-18T05:11:25.689Z,0.00
2018-12-18T05:12:25.649Z,0.00
2018-12-18T05:13:25.642Z,0.00
2018-12-18T05:14:25.642Z,0.00
2018-12-18T05:15:25.623Z,0.00
2018-12-18T05:16:25.619Z,0.00
2018-12-18T05:17:25.608Z,0.00
2018-12-18T05:18:25.602Z,0.00
2018-12-18T05:19:25.594Z,0.00
2018-12-18T05:20:25.585Z,0.00
2018-12-18T05:21:25.578Z,0.00
2018-12-18T05:22:25.571Z,0.00
2018-12-18T05:23:25.561Z,0.00
2018-12-18T05:24:25.630Z,0.00
2018-12-18T05:25:25.548Z,0.00
2018-12-18T05:26:25.575Z,0.00
2018-12-18T05:27:25.528Z,0.00
2018-12-18T05:28:25.528Z,0.00
2018-12-18T05:29:25.513Z,0.00
2018-12-18T05:30:25.509Z,0.00
2018-12-18T05:31:25.496Z,0.00
2018-12-18T05:32:25.490Z,0.00
2018-12-18T05:33:25.482Z,0.00
2018-12-18T05:34:25.508Z,0.00
2018-12-18T05:35:25.464Z,0.00
2018-12-18T05:36:26.050Z,0.00
2018-12-18T05:37:25.491Z,0.00
2018-12-18T05:38:25.443Z,0.00
2018-12-18T05:39:25.455Z,0.00
2018-12-18T05:40:25.432Z,0.00
2018-12-18T05:41:25.416Z,0.00
2018-12-18T05:42:25.447Z,0.00
2018-12-18T05:43:25.406Z,0.00
2018-12-18T05:44:25.393Z,0.00
2018-12-18T05:45:25.389Z,0.00
2018-12-18T05:46:25.380Z,0.00
2018-12-18T05:47:25.372Z,0.00
2018-12-18T05:48:25.361Z,0.00
2018-12-18T05:49:25.389Z,0.00
2018-12-18T05:50:25.360Z,0.00
2018-12-18T05:51:25.346Z,0.00
2018-12-18T05:52:25.346Z,0.00
2018-12-18T05:53:25.332Z,0.00
2018-12-18T05:54:25.316Z,0.00
2018-12-18T05:55:25.329Z,0.00
2018-12-18T05:56:25.321Z,0.00
2018-12-18T05:57:25.320Z,0.00
2018-12-18T05:58:25.310Z,0.00
2018-12-18T05:59:25.280Z,0.00
2018-12-18T06:00:25.275Z,0.00
2018-12-18T06:01:25.284Z,0.00
2018-12-18T06:02:25.289Z,0.00
2018-12-18T06:03:25.241Z,0.00
2018-12-18T06:04:25.271Z,0.00
2018-12-18T06:05:27.793Z,0.00
2018-12-18T06:06:25.263Z,0.00
2018-12-18T06:07:25.238Z,0.00
2018-12-18T06:08:25.229Z,0.00
2018-12-18T06:09:25.235Z,0.00
2018-12-18T06:10:25.214Z,0.00
2018-12-18T06:11:25.206Z,0.00
2018-12-18T06:12:25.197Z,0.00
2018-12-18T06:13:25.206Z,0.00
2018-12-18T06:14:25.186Z,0.00
2018-12-18T06:15:25.226Z,0.00
2018-12-18T06:16:27.254Z,0.00
2018-12-18T06:17:32.912Z,0.00
2018-12-18T06:18:25.204Z,0.00
2018-12-18T06:19:25.427Z,0.00
2018-12-18T06:20:26.020Z,0.00
2018-12-18T06:21:25.723Z,0.00
2018-12-18T06:22:25.303Z,0.00
2018-12-18T06:23:25.325Z,0.00
2018-12-18T06:24:33.121Z,0.00
2018-12-18T06:26:23.744Z,0.00
2018-12-18T06:27:23.520Z,0.00
2018-12-18T06:29:18.771Z,0.00
2018-12-18T06:30:18.275Z,0.00
2018-12-18T06:32:10.041Z,0.00
2018-12-18T06:33:10.007Z,0.00
2018-12-18T06:35:10.058Z,0.00
2018-12-18T06:36:03.827Z,0.00
2018-12-18T06:37:56.729Z,0.00
2018-12-18T06:38:56.665Z,0.00
2018-12-18T06:40:49.590Z,4.00
2018-12-18T06:41:49.581Z,4.00
2018-12-18T06:43:42.988Z,4.00
2018-12-18T06:44:42.896Z,0.00
2018-12-18T06:46:36.891Z,0.00
2018-12-18T06:47:36.230Z,4.00
2018-12-18T06:49:29.774Z,8.00
2018-12-18T06:50:29.740Z,4.00
2018-12-18T06:52:22.625Z,12.00
2018-12-18T06:53:22.620Z,12.00
2018-12-18T06:55:15.925Z,16.00
2018-12-18T06:56:15.783Z,16.00
2018-12-18T06:58:09.676Z,24.00
2018-12-18T06:59:09.062Z,24.00
2018-12-18T07:01:02.664Z,36.00
2018-12-18T07:02:02.626Z,36.00
2018-12-18T07:03:55.983Z,40.00
2018-12-18T07:04:56.325Z,40.00
2018-12-18T07:06:49.296Z,48.00
2018-12-18T07:07:49.232Z,52.00
2018-12-18T07:09:42.693Z,68.00
2018-12-18T07:10:43.157Z,68.00
2018-12-18T07:12:36.017Z,84.00
2018-12-18T07:13:36.030Z,92.00
2018-12-18T07:15:29.839Z,100.00
2018-12-18T07:16:29.884Z,104.00
2018-12-18T07:18:23.906Z,108.00
2018-12-18T07:19:22.868Z,116.00
2018-12-18T07:21:15.734Z,124.00
2018-12-18T07:22:15.715Z,140.00
2018-12-18T07:24:14.000Z,204.00
2018-12-18T07:25:08.885Z,240.00
2018-12-18T07:27:02.495Z,288.00
2018-12-18T07:28:01.931Z,320.00
2018-12-18T07:29:55.744Z,312.00
2018-12-18T07:30:55.546Z,308.00
2018-12-18T07:32:49.174Z,320.00
2018-12-18T07:33:48.595Z,280.00
2018-12-18T07:35:42.958Z,260.00
2018-12-18T07:36:42.379Z,284.00
2018-12-18T07:38:35.328Z,400.00
2018-12-18T07:39:36.330Z,544.00
2018-12-18T07:41:29.832Z,728.00
2018-12-18T07:42:31.049Z,784.00
2018-12-18T07:44:23.117Z,844.00
2018-12-18T07:45:24.313Z,868.00
2018-12-18T07:46:23.820Z,880.00
2018-12-18T07:47:22.201Z,924.00
2018-12-18T07:48:22.426Z,920.00
2018-12-18T07:49:22.059Z,960.00
2018-12-18T07:50:22.038Z,984.00
2018-12-18T07:51:22.033Z,960.00
2018-12-18T07:52:22.014Z,984.00
2018-12-18T07:53:21.996Z,1088.00
2018-12-18T07:54:21.977Z,1108.00
2018-12-18T07:55:21.994Z,1176.00
2018-12-18T07:56:22.026Z,1212.00
2018-12-18T07:57:21.953Z,1152.00
2018-12-18T07:58:21.949Z,1120.00
2018-12-18T07:59:21.939Z,1088.00
2018-12-18T08:00:21.933Z,1164.00
2018-12-18T08:01:21.922Z,1384.00
2018-12-18T08:02:21.917Z,1652.00
2018-12-18T08:03:21.912Z,1660.00
2018-12-18T08:04:21.913Z,1584.00
2018-12-18T08:05:21.907Z,1344.00
2018-12-18T08:06:21.888Z,1204.00
2018-12-18T08:07:21.882Z,1220.00
2018-12-18T08:08:21.876Z,1260.00
2018-12-18T08:09:21.864Z,1404.00
2018-12-18T08:10:21.864Z,1424.00
2018-12-18T08:11:21.880Z,1544.00
2018-12-18T08:12:21.840Z,1628.00
2018-12-18T08:13:21.842Z,1588.00
2018-12-18T08:14:21.832Z,1508.00
2018-12-18T08:15:21.824Z,1488.00
2018-12-18T08:16:21.818Z,1428.00
2018-12-18T08:17:21.802Z,1444.00
2018-12-18T08:18:21.800Z,1472.00
2018-12-18T08:19:21.790Z,1480.00
2018-12-18T08:20:21.807Z,1480.00
2018-12-18T08:21:21.832Z,1452.00
2018-12-18T08:22:21.805Z,1516.00
2018-12-18T08:23:21.784Z,1616.00
2018-12-18T08:24:21.783Z,1640.00
2018-12-18T08:25:21.774Z,1712.00
2018-12-18T08:26:21.764Z,1796.00
2018-12-18T08:27:21.766Z,1896.00
2018-12-18T08:28:21.729Z,1996.00
2018-12-18T08:29:21.722Z,2328.00
2018-12-18T08:30:21.716Z,2336.00
2018-12-18T08:31:21.738Z,2336.00
2018-12-18T08:32:21.742Z,2120.00
2018-12-18T08:33:21.721Z,2184.00
2018-12-18T08:34:21.680Z,2404.00
2018-12-18T08:35:21.703Z,2348.00
2018-12-18T08:36:21.666Z,2604.00
2018-12-18T08:37:21.689Z,2860.00
2018-12-18T08:38:21.666Z,3120.00
2018-12-18T08:39:21.650Z,3316.00
2018-12-18T08:40:21.676Z,3204.00
2018-12-18T08:41:21.654Z,2672.00
2018-12-18T08:42:21.655Z,2388.00
2018-12-18T08:43:21.628Z,2260.00
2018-12-18T08:44:21.639Z,2192.00
2018-12-18T08:45:21.606Z,2280.00
2018-12-18T08:46:21.602Z,2076.00
2018-12-18T08:47:21.618Z,1988.00
2018-12-18T08:48:21.592Z,1788.00
2018-12-18T08:49:21.580Z,1752.00
2018-12-18T08:50:21.579Z,2316.00
2018-12-18T08:51:21.581Z,2672.00
2018-12-18T08:52:21.592Z,4328.00
2018-12-18T08:53:21.589Z,8916.00
2018-12-18T08:54:21.634Z,3260.00
2018-12-18T08:55:21.686Z,3280.00
2018-12-18T08:56:21.547Z,2844.00
2018-12-18T08:57:21.561Z,1944.00
2018-12-18T08:58:21.555Z,12940.00
2018-12-18T08:59:21.593Z,2512.00
2018-12-18T09:00:21.551Z,1828.00
2018-12-18T09:01:21.522Z,1288.00
2018-12-18T09:02:21.539Z,1040.00
2018-12-18T09:03:21.517Z,1072.00
2018-12-18T09:04:21.530Z,1380.00
2018-12-18T09:05:21.506Z,1220.00
2018-12-18T09:06:21.566Z,1168.00
2018-12-18T09:07:21.539Z,1416.00
2018-12-18T09:08:21.572Z,1288.00
2018-12-18T09:09:21.542Z,1048.00
2018-12-18T09:10:21.565Z,1060.00
2018-12-18T09:11:21.466Z,1216.00
2018-12-18T09:12:21.450Z,1228.00
2018-12-18T09:13:21.459Z,1928.00
2018-12-18T09:14:21.507Z,2652.00
2018-12-18T09:15:21.426Z,2792.00
2018-12-18T09:16:21.427Z,2912.00
2018-12-18T09:17:21.426Z,2788.00
2018-12-18T09:18:21.419Z,2860.00
2018-12-18T09:19:21.406Z,4052.00
2018-12-18T09:20:21.407Z,8084.00
2018-12-18T09:21:21.407Z,25856.00
2018-12-18T09:22:21.414Z,50976.00
2018-12-18T09:23:21.360Z,5344.00
2018-12-18T09:24:21.398Z,9300.00
2018-12-18T09:25:21.387Z,15456.00
2018-12-18T09:26:21.349Z,22848.00
2018-12-18T09:27:21.370Z,45312.00
2018-12-18T09:28:21.453Z,49536.00
2018-12-18T09:29:21.395Z,34528.00
2018-12-18T09:30:21.363Z,39040.00
2018-12-18T09:31:21.357Z,15008.00
2018-12-18T09:32:21.354Z,46208.00
2018-12-18T09:33:21.403Z,60224.00
2018-12-18T09:34:21.371Z,30400.00
2018-12-18T09:35:21.373Z,8064.00
2018-12-18T09:36:21.404Z,8692.00
2018-12-18T09:37:21.472Z,61056.00
2018-12-18T09:38:21.342Z,57984.00
2018-12-18T09:39:21.352Z,57824.00
2018-12-18T09:40:21.365Z,46752.00
2018-12-18T09:41:21.454Z,50464.00
2018-12-18T09:42:21.443Z,25696.00
2018-12-18T09:43:21.449Z,51648.00
2018-12-18T09:44:21.370Z,6132.00
2018-12-18T09:45:21.401Z,35840.00
2018-12-18T09:46:21.338Z,3428.00
2018-12-18T09:47:21.362Z,3168.00
2018-12-18T09:48:21.366Z,3168.00
2018-12-18T09:49:21.364Z,2492.00
2018-12-18T09:50:21.390Z,2264.00
2018-12-18T09:51:21.389Z,2724.00
2018-12-18T09:52:21.394Z,3408.00
2018-12-18T09:53:21.369Z,3132.00
2018-12-18T09:54:21.384Z,2676.00
2018-12-18T09:55:21.355Z,3656.00
2018-12-18T09:56:21.391Z,3772.00
2018-12-18T09:57:21.361Z,4564.00
2018-12-18T09:58:21.405Z,4508.00
2018-12-18T09:59:21.332Z,3872.00
2018-12-18T10:00:21.391Z,18752.00
2018-12-18T10:01:21.369Z,5428.00
2018-12-18T10:02:21.331Z,23808.00
2018-12-18T10:03:21.370Z,23776.00
2018-12-18T10:04:21.452Z,58496.00
2018-12-18T10:05:21.338Z,10328.00
2018-12-18T10:06:21.369Z,8156.00
2018-12-18T10:07:21.340Z,31424.00
2018-12-18T10:08:21.316Z,9488.00
2018-12-18T10:09:21.336Z,5172.00
2018-12-18T10:10:21.342Z,10988.00
2018-12-18T10:11:21.299Z,37504.00
2018-12-18T10:12:21.297Z,64128.00
2018-12-18T10:13:21.297Z,22816.00
2018-12-18T10:14:21.317Z,17888.00
2018-12-18T10:15:21.322Z,36992.00
2018-12-18T10:16:21.325Z,70080.00
2018-12-18T10:17:21.290Z,72640.00
2018-12-18T10:18:21.286Z,38496.00
2018-12-18T10:19:21.300Z,65184.00
2018-12-18T10:20:21.300Z,23456.00
2018-12-18T10:21:21.291Z,20032.00
2018-12-18T10:22:21.295Z,10708.00
2018-12-18T10:23:21.321Z,76512.00
2018-12-18T10:24:21.289Z,75296.00
2018-12-18T10:25:21.292Z,75552.00
2018-12-18T10:26:21.296Z,75104.00
2018-12-18T10:27:21.328Z,79424.00
2018-12-18T10:28:21.361Z,76256.00
2018-12-18T10:29:21.328Z,68352.00
2018-12-18T10:30:21.310Z,69632.00
2018-12-18T10:31:21.323Z,70880.00
2018-12-18T10:32:21.350Z,72448.00
2018-12-18T10:33:21.392Z,72800.00
2018-12-18T10:34:21.332Z,73536.00
2018-12-18T10:35:22.114Z,73120.00
2018-12-18T10:36:21.370Z,73760.00
2018-12-18T10:37:21.353Z,74880.00
2018-12-18T10:38:21.357Z,76096.00
2018-12-18T10:39:21.396Z,74848.00
2018-12-18T10:40:21.372Z,72864.00
2018-12-18T10:41:21.376Z,70560.00
2018-12-18T10:42:21.389Z,72640.00
2018-12-18T10:43:21.393Z,75904.00
2018-12-18T10:44:21.428Z,77696.00
2018-12-18T10:45:21.409Z,77344.00
2018-12-18T10:46:21.413Z,76576.00
2018-12-18T10:47:21.420Z,75424.00
2018-12-18T10:48:21.430Z,75808.00
2018-12-18T10:49:21.468Z,75616.00
2018-12-18T10:50:21.441Z,74240.00
2018-12-18T10:51:21.471Z,62080.00
2018-12-18T10:52:21.456Z,27680.00
2018-12-18T10:53:21.461Z,6724.00
2018-12-18T10:54:21.470Z,4448.00
2018-12-18T10:55:21.474Z,4044.00
2018-12-18T10:56:21.511Z,4240.00
2018-12-18T10:57:21.482Z,4348.00
2018-12-18T10:58:24.178Z,4184.00
2018-12-18T10:59:21.497Z,4224.00
2018-12-18T11:00:21.496Z,3956.00
2018-12-18T11:01:21.505Z,3960.00
2018-12-18T11:02:21.510Z,3932.00
2018-12-18T11:03:21.507Z,3816.00
2018-12-18T11:04:21.509Z,3752.00
2018-12-18T11:05:21.540Z,3676.00
2018-12-18T11:06:21.518Z,3540.00
2018-12-18T11:07:21.515Z,3484.00
2018-12-18T11:08:21.558Z,3448.00
2018-12-18T11:09:21.527Z,3472.00
2018-12-18T11:10:21.518Z,3460.00
2018-12-18T11:11:21.524Z,3484.00
2018-12-18T11:12:21.522Z,3492.00
2018-12-18T11:13:21.522Z,3536.00
2018-12-18T11:14:21.523Z,3500.00
2018-12-18T11:15:21.519Z,3392.00
2018-12-18T11:16:21.530Z,3372.00
2018-12-18T11:17:21.526Z,3372.00
2018-12-18T11:18:21.544Z,3316.00
2018-12-18T11:19:21.520Z,3280.00
2018-12-18T11:20:21.516Z,3248.00
2018-12-18T11:21:21.515Z,3184.00
2018-12-18T11:22:21.513Z,3132.00
2018-12-18T11:23:21.525Z,3072.00
2018-12-18T11:24:21.545Z,3024.00
2018-12-18T11:25:21.532Z,3084.00
2018-12-18T11:26:21.514Z,3080.00
2018-12-18T11:27:21.507Z,3112.00
2018-12-18T11:28:21.514Z,3180.00
2018-12-18T11:29:21.508Z,3112.00
2018-12-18T11:30:21.574Z,3044.00
2018-12-18T11:31:21.506Z,2976.00
2018-12-18T11:32:21.519Z,2976.00
2018-12-18T11:33:21.504Z,3044.00
2018-12-18T11:34:21.531Z,3028.00
2018-12-18T11:35:21.498Z,3264.00
2018-12-18T11:36:21.494Z,3600.00
2018-12-18T11:37:21.498Z,3036.00
2018-12-18T11:38:21.493Z,3256.00
2018-12-18T11:39:21.490Z,3112.00
2018-12-18T11:40:21.485Z,3172.00
2018-12-18T11:41:21.486Z,3128.00
2018-12-18T11:42:21.488Z,3136.00
2018-12-18T11:43:21.506Z,3000.00
2018-12-18T11:44:21.491Z,2800.00
2018-12-18T11:45:21.483Z,3000.00
2018-12-18T11:46:21.496Z,2960.00
2018-12-18T11:47:21.511Z,2496.00
2018-12-18T11:48:21.471Z,2772.00
2018-12-18T11:49:21.491Z,2492.00
2018-12-18T11:50:21.463Z,2704.00
2018-12-18T11:51:21.467Z,2824.00
2018-12-18T11:52:21.515Z,2552.00
2018-12-18T11:53:21.509Z,2832.00
2018-12-18T11:54:21.448Z,2348.00
2018-12-18T11:55:21.449Z,2176.00
2018-12-18T11:56:21.520Z,2356.00
2018-12-18T11:57:21.435Z,2568.00
2018-12-18T11:58:21.434Z,2400.00
2018-12-18T11:59:21.438Z,2272.00
2018-12-18T12:00:21.464Z,2464.00
2018-12-18T12:01:21.444Z,2316.00
2018-12-18T12:02:21.628Z,2252.00
2018-12-18T12:03:21.437Z,2264.00
2018-12-18T12:04:21.416Z,2240.00
2018-12-18T12:05:21.421Z,2544.00
2018-12-18T12:06:28.907Z,2480.00
2018-12-18T12:08:15.691Z,2264.00
2018-12-18T12:09:15.652Z,2176.00
2018-12-18T12:11:08.492Z,2088.00
2018-12-18T12:12:08.389Z,2036.00
2018-12-18T12:14:02.492Z,1936.00
2018-12-18T12:15:02.465Z,1908.00
2018-12-18T12:16:54.814Z,1904.00
2018-12-18T12:17:54.564Z,1924.00
2018-12-18T12:19:47.682Z,1920.00
2018-12-18T12:20:47.647Z,1928.00
2018-12-18T12:22:40.422Z,1904.00
2018-12-18T12:23:40.741Z,1852.00
2018-12-18T12:25:34.485Z,1784.00
2018-12-18T12:26:33.301Z,1772.00
2018-12-18T12:28:27.227Z,1788.00
2018-12-18T12:29:26.642Z,1776.00
2018-12-18T12:31:19.447Z,1788.00
2018-12-18T12:32:19.493Z,1776.00
2018-12-18T12:34:15.073Z,1760.00
2018-12-18T12:35:13.508Z,1764.00
2018-12-18T12:37:05.774Z,1752.00
2018-12-18T12:38:06.846Z,1756.00
2018-12-18T12:39:58.741Z,1752.00
2018-12-18T12:40:59.655Z,1756.00
2018-12-18T12:42:51.407Z,1744.00
2018-12-18T12:43:52.353Z,1744.00
2018-12-18T12:45:44.495Z,1736.00
2018-12-18T12:46:44.602Z,1724.00
2018-12-18T12:48:39.012Z,1712.00
2018-12-18T12:49:38.859Z,1672.00
2018-12-18T12:51:31.843Z,1540.00
2018-12-18T12:52:32.243Z,1504.00
2018-12-18T12:54:25.905Z,1500.00
2018-12-18T12:55:25.868Z,1504.00
2018-12-18T12:57:19.699Z,1512.00
2018-12-18T12:58:19.194Z,1492.00
2018-12-18T12:59:19.723Z,1448.00
2018-12-18T13:00:18.676Z,1440.00
2018-12-18T13:01:32.682Z,1428.00
2018-12-18T13:02:28.480Z,1448.00
2018-12-18T13:03:27.459Z,1476.00
2018-12-18T13:04:18.352Z,1484.00
2018-12-18T13:05:21.490Z,1464.00
2018-12-18T13:06:19.358Z,1420.00
2018-12-18T13:07:18.324Z,1440.00
2018-12-18T13:08:18.360Z,1488.00
2018-12-18T13:09:18.327Z,1528.00
2018-12-18T13:10:18.336Z,1576.00
2018-12-18T13:11:18.303Z,1568.00
2018-12-18T13:12:18.272Z,1504.00
2018-12-18T13:13:18.692Z,1520.00
2018-12-18T13:14:21.778Z,1492.00
2018-12-18T13:15:18.921Z,1648.00
2018-12-18T13:16:20.684Z,1676.00
2018-12-18T13:17:34.118Z,1688.00
2018-12-18T13:18:19.236Z,1756.00
2018-12-18T13:19:22.451Z,1724.00
2018-12-18T13:24:25.862Z,1708.00
2018-12-18T13:26:55.452Z,1800.00
2018-12-18T13:30:06.688Z,1896.00
2018-12-18T13:31:55.080Z,2260.00